Time;durP1;ratioP1;P1;durP2;ratioP2;P2;SDS_P1;SDS_P2;PMS_P1;PMS_P2;Temp;Humidity;BMP_temperature;BMP_pressure;BME280_temperature;BME280_humidity;BME280_pressure;Samples;Min_cycle;Max_cycle;Signal;HPM_P1;HPM_P2
2024/02/18 00:01:34;;;;;;;;;;;;;;;;;;4963582;28;5055;-77
2024/02/18 00:04:00;;;;;;;;;;;;;;;;;;4962987;28;4943;-75
2024/02/18 00:06:27;;;;;;;;;;;;;;;;;;4967474;28;5284;-74
2024/02/18 00:08:52;;;;;;;;;;;;;;;;;;4949464;28;3421;-75
2024/02/18 00:11:17;;;;;;;;;;;;;;;;;;4960528;28;5052;-75
2024/02/18 00:13:43;;;;;;;;;;;;;;;;;;4965287;28;5147;-74
2024/02/18 00:16:08;;;;;;;;;;;;;;;;;;4943469;28;5560;-74
2024/02/18 00:18:34;;;;;;;;;;;;;;;;;;4964418;28;5173;-75
2024/02/18 00:20:59;;;;;;;;;;;;;;;;;;4966745;28;3327;-74
2024/02/18 00:23:24;;;;;;;;;;;;;;;;;;4964840;28;4542;-75
2024/02/18 00:25:50;;;;;;;;;;;;;;;;;;4965644;28;5121;-75
2024/02/18 00:28:15;;;;;;;;;;;;;;;;;;4964968;28;5159;-74
2024/02/18 00:30:40;;;;;;;;;;;;;;;;;;4966825;28;5158;-74
2024/02/18 00:33:05;;;;;;;;;;;;;;;;;;4969658;28;3298;-74
2024/02/18 00:35:31;;;;;;;;;;;;;;;;;;4967758;28;4828;-75
2024/02/18 00:37:56;;;;;;;;;;;;;;;;;;4945336;28;4866;-74
2024/02/18 00:40:21;;;;;;;;;;;;;;;;;;4948839;28;4723;-75
2024/02/18 00:42:47;;;;;;;;;;;;;;;;;;4963660;28;4736;-74
2024/02/18 00:45:13;;;;;;;;;;;;;;;;;;4945167;28;5253;-74
2024/02/18 00:47:38;;;;;;;;;;;;;;;;;;4950361;28;3590;-75
2024/02/18 00:50:04;;;;;;;;;;;;;;;;;;4963968;28;5099;-74
2024/02/18 00:52:29;;;;;;;;;;;;;;;;;;4963362;28;5096;-75
2024/02/18 00:54:55;;;;;;;;;;;;;;;;;;4946614;28;5071;-75
2024/02/18 00:57:20;;;;;;;;;;;;;;;;;;4967424;28;5047;-75
2024/02/18 00:59:45;;;;;;;;;;;;;;;;;;4962575;28;3312;-76
2024/02/18 01:02:10;;;;;;;;;;;;;;;;;;4962745;28;5122;-75
2024/02/18 01:04:36;;;;;;;;;;;;;;;;;;4965166;28;4541;-76
2024/02/18 01:07:01;;;;;;;;;;;;;;;;;;4967169;28;5034;-76
2024/02/18 01:09:26;;;;;;;;;;;;;;;;;;4961127;28;4565;-75
2024/02/18 01:11:53;;;;;;;;;;;;;;;;;;4966522;28;3279;-75
2024/02/18 01:14:18;;;;;;;;;;;;;;;;;;4967173;28;5058;-75
2024/02/18 01:16:43;;;;;;;;;;;;;;;;;;4945934;28;5075;-75
2024/02/18 01:19:09;;;;;;;;;;;;;;;;;;4965292;28;4936;-75
2024/02/18 01:21:34;;;;;;;;;;;;;;;;;;4964565;28;5454;-75
2024/02/18 01:23:59;;;;;;;;;;;;;;;;;;4965569;28;1436;-75
2024/02/18 01:26:25;;;;;;;;;;;;;;;;;;4966188;28;5120;-75
2024/02/18 01:28:50;;;;;;;;;;;;;;;;;;4964814;28;4944;-76
2024/02/18 01:31:15;;;;;;;;;;;;;;;;;;4963506;28;5064;-75
2024/02/18 01:33:43;;;;;;;;;;;;;;;;;;4965768;28;5138;-76
2024/02/18 01:36:08;;;;;;;;;;;;;;;;;;4966570;28;3248;-75
2024/02/18 01:38:33;;;;;;;;;;;;;;;;;;4965088;28;5019;-73
2024/02/18 01:40:59;;;;;;;;;;;;;;;;;;4963441;28;4465;-75
2024/02/18 01:43:26;;;;;;;;;;;;;;;;;;4946609;28;4564;-76
2024/02/18 01:45:51;;;;;;;;;;;;;;;;;;4962321;28;5165;-76
2024/02/18 01:48:16;;;;;;;;;;;;;;;;;;4968385;28;4904;-74
2024/02/18 01:50:42;;;;;;;;;;;;;;;;;;4964354;28;3324;-74
2024/02/18 01:53:08;;;;;;;;;;;;;;;;;;4961980;28;5057;-75
2024/02/18 01:55:33;;;;;;;;;;;;;;;;;;4965669;28;5115;-76
2024/02/18 01:57:59;;;;;;;;;;;;;;;;;;4959675;28;4683;-76
2024/02/18 02:00:25;;;;;;;;;;;;;;;;;;4947601;28;5080;-76
2024/02/18 02:02:50;;;;;;;;;;;;;;;;;;4960385;28;3343;-77
2024/02/18 02:05:17;;;;;;;;;;;;;;;;;;4963631;28;5121;-77
2024/02/18 02:07:43;;;;;;;;;;;;;;;;;;4962132;28;4986;-76
2024/02/18 02:10:11;;;;;;;;;;;;;;;;;;4962323;28;5141;-76
2024/02/18 02:12:41;;;;;;;;;;;;;;;;;;4961621;28;4533;-76
2024/02/18 02:15:06;;;;;;;;;;;;;;;;;;4966574;28;3383;-75
2024/02/18 02:17:32;;;;;;;;;;;;;;;;;;4948832;28;4457;-75
2024/02/18 02:19:57;;;;;;;;;;;;;;;;;;4966981;28;4645;-76
2024/02/18 02:22:22;;;;;;;;;;;;;;;;;;4966280;28;4546;-75
2024/02/18 02:24:48;;;;;;;;;;;;;;;;;;4957773;28;4953;-75
2024/02/18 02:27:14;;;;;;;;;;;;;;;;;;4962088;28;5073;-75
2024/02/18 02:29:39;;;;;;;;;;;;;;;;;;4943705;28;3663;-76
2024/02/18 02:32:05;;;;;;;;;;;;;;;;;;4948944;28;5128;-75
2024/02/18 02:34:30;;;;;;;;;;;;;;;;;;4963698;28;4536;-74
2024/02/18 02:36:55;;;;;;;;;;;;;;;;;;4964149;28;5328;-74
2024/02/18 02:39:21;;;;;;;;;;;;;;;;;;4961494;28;5343;-73
2024/02/18 02:41:46;;;;;;;;;;;;;;;;;;4963773;28;3374;-75
2024/02/18 02:44:12;;;;;;;;;;;;;;;;;;4961855;28;5070;-74
2024/02/18 02:46:37;;;;;;;;;;;;;;;;;;4966138;28;4543;-76
2024/02/18 02:49:02;;;;;;;;;;;;;;;;;;4962812;28;4930;-75
2024/02/18 02:51:28;;;;;;;;;;;;;;;;;;4964216;28;5114;-75
2024/02/18 02:53:53;;;;;;;;;;;;;;;;;;4963507;28;3304;-76
2024/02/18 02:56:18;;;;;;;;;;;;;;;;;;4960239;28;4900;-75
2024/02/18 02:58:43;;;;;;;;;;;;;;;;;;4957898;28;4524;-75
2024/02/18 03:01:09;;;;;;;;;;;;;;;;;;4964569;28;4485;-74
2024/02/18 03:03:34;;;;;;;;;;;;;;;;;;4970417;28;4518;-74
2024/02/18 03:06:00;;;;;;;;;;;;;;;;;;4954842;28;1910;-75
2024/02/18 03:08:26;;;;;;;;;;;;;;;;;;4946806;28;4597;-75
2024/02/18 03:10:51;;;;;;;;;;;;;;;;;;4966588;28;5300;-74
2024/02/18 03:13:16;;;;;;;;;;;;;;;;;;4968941;28;4660;-74
2024/02/18 03:15:42;;;;;;;;;;;;;;;;;;4949636;28;5053;-74
2024/02/18 03:18:07;;;;;;;;;;;;;;;;;;4970705;28;3184;-76
2024/02/18 03:20:32;;;;;;;;;;;;;;;;;;4966857;28;4477;-74
2024/02/18 03:22:58;;;;;;;;;;;;;;;;;;4965597;28;5037;-75
2024/02/18 03:25:23;;;;;;;;;;;;;;;;;;4953264;28;5085;-76
2024/02/18 03:27:48;;;;;;;;;;;;;;;;;;4966427;28;5054;-75
2024/02/18 03:30:14;;;;;;;;;;;;;;;;;;4970596;28;5177;-75
2024/02/18 03:32:39;;;;;;;;;;;;;;;;;;4968080;28;3916;-74
2024/02/18 03:35:05;;;;;;;;;;;;;;;;;;4962391;28;4538;-74
2024/02/18 03:37:30;;;;;;;;;;;;;;;;;;4933900;28;6036;-74
2024/02/18 03:39:55;;;;;;;;;;;;;;;;;;4966226;28;5199;-74
2024/02/18 03:42:21;;;;;;;;;;;;;;;;;;4966434;28;4535;-75
2024/02/18 03:44:46;;;;;;;;;;;;;;;;;;4948590;28;3528;-74
2024/02/18 03:47:12;;;;;;;;;;;;;;;;;;4956366;28;5109;-75
2024/02/18 03:49:37;;;;;;;;;;;;;;;;;;4950219;28;4681;-74
2024/02/18 03:52:02;;;;;;;;;;;;;;;;;;4966222;28;4988;-75
2024/02/18 03:54:29;;;;;;;;;;;;;;;;;;4966933;28;4968;-75
2024/02/18 03:56:54;;;;;;;;;;;;;;;;;;4965489;28;3337;-75
2024/02/18 03:59:20;;;;;;;;;;;;;;;;;;4963997;28;4615;-76
2024/02/18 04:01:45;;;;;;;;;;;;;;;;;;4968106;28;4980;-75
2024/02/18 04:04:11;;;;;;;;;;;;;;;;;;4946674;28;5146;-75
2024/02/18 04:06:36;;;;;;;;;;;;;;;;;;4947877;28;5150;-74
2024/02/18 04:09:02;;;;;;;;;;;;;;;;;;4969369;28;3472;-76
2024/02/18 04:11:27;;;;;;;;;;;;;;;;;;4961152;28;4434;-76
2024/02/18 04:13:52;;;;;;;;;;;;;;;;;;4958220;28;5120;-76
2024/02/18 04:16:18;;;;;;;;;;;;;;;;;;4965185;28;5061;-76
2024/02/18 04:18:43;;;;;;;;;;;;;;;;;;4949670;28;5019;-76
2024/02/18 04:21:08;;;;;;;;;;;;;;;;;;4967606;28;3353;-76
2024/02/18 04:23:34;;;;;;;;;;;;;;;;;;4964528;28;4834;-76
2024/02/18 04:25:59;;;;;;;;;;;;;;;;;;4966002;28;4784;-76
2024/02/18 04:28:24;;;;;;;;;;;;;;;;;;4966800;28;5171;-76
2024/02/18 04:30:49;;;;;;;;;;;;;;;;;;4968449;28;5149;-78
2024/02/18 04:33:15;;;;;;;;;;;;;;;;;;4968224;28;4732;-76
2024/02/18 04:35:40;;;;;;;;;;;;;;;;;;4965811;28;1176;-75
2024/02/18 04:38:05;;;;;;;;;;;;;;;;;;4964615;28;4821;-76
2024/02/18 04:40:31;;;;;;;;;;;;;;;;;;4964821;28;5240;-75
2024/02/18 04:42:56;;;;;;;;;;;;;;;;;;4964391;28;5194;-75
2024/02/18 04:45:21;;;;;;;;;;;;;;;;;;4947348;28;5477;-76
2024/02/18 04:47:47;;;;;;;;;;;;;;;;;;4963655;28;3980;-76
2024/02/18 04:50:12;;;;;;;;;;;;;;;;;;4945906;28;4722;-75
2024/02/18 04:52:37;;;;;;;;;;;;;;;;;;4942869;28;5577;-76
2024/02/18 04:55:03;;;;;;;;;;;;;;;;;;4967749;28;5030;-77
2024/02/18 04:57:28;;;;;;;;;;;;;;;;;;4964192;28;5513;-75
2024/02/18 04:59:54;;;;;;;;;;;;;;;;;;4940210;28;3344;-75
2024/02/18 05:02:20;;;;;;;;;;;;;;;;;;4944775;28;5014;-75
2024/02/18 05:04:45;;;;;;;;;;;;;;;;;;4963157;28;5032;-75
2024/02/18 05:07:11;;;;;;;;;;;;;;;;;;4945411;28;4631;-75
2024/02/18 05:09:39;;;;;;;;;;;;;;;;;;4961178;28;5043;-76
2024/02/18 05:12:04;;;;;;;;;;;;;;;;;;4963079;28;3390;-76
2024/02/18 05:14:30;;;;;;;;;;;;;;;;;;4963474;28;4584;-76
2024/02/18 05:16:57;;;;;;;;;;;;;;;;;;4946583;28;4753;-76
2024/02/18 05:19:23;;;;;;;;;;;;;;;;;;4965199;28;5111;-78
2024/02/18 05:21:48;;;;;;;;;;;;;;;;;;4966503;28;5100;-76
2024/02/18 05:24:16;;;;;;;;;;;;;;;;;;4949843;28;5050;-77
2024/02/18 05:26:42;;;;;;;;;;;;;;;;;;4951249;28;3638;-76
2024/02/18 05:29:08;;;;;;;;;;;;;;;;;;4963327;28;5988;-77
2024/02/18 05:31:34;;;;;;;;;;;;;;;;;;4956093;28;5094;-78
2024/02/18 05:33:59;;;;;;;;;;;;;;;;;;4944919;28;5145;-77
2024/02/18 05:36:24;;;;;;;;;;;;;;;;;;4947402;28;4532;-76
2024/02/18 05:38:50;;;;;;;;;;;;;;;;;;4964709;28;1176;-77
2024/02/18 05:41:16;;;;;;;;;;;;;;;;;;4962550;28;5042;-76
2024/02/18 05:43:41;;;;;;;;;;;;;;;;;;4965391;28;4783;-77
2024/02/18 05:46:07;;;;;;;;;;;;;;;;;;4947841;28;5014;-75
2024/02/18 05:48:32;;;;;;;;;;;;;;;;;;4962800;28;4679;-76
2024/02/18 05:50:58;;;;;;;;;;;;;;;;;;4966433;28;3390;-77
2024/02/18 05:53:24;;;;;;;;;;;;;;;;;;4967186;28;4839;-76
2024/02/18 05:55:49;;;;;;;;;;;;;;;;;;4964927;28;4685;-75
2024/02/18 05:58:14;;;;;;;;;;;;;;;;;;4958208;28;4948;-75
2024/02/18 06:00:40;;;;;;;;;;;;;;;;;;4962885;28;4937;-77
2024/02/18 06:03:07;;;;;;;;;;;;;;;;;;4969705;28;1308;-75
2024/02/18 06:05:32;;;;;;;;;;;;;;;;;;4968122;28;4556;-76
2024/02/18 06:07:57;;;;;;;;;;;;;;;;;;4968525;28;5190;-76
2024/02/18 06:10:24;;;;;;;;;;;;;;;;;;4962161;28;4515;-77
2024/02/18 06:12:49;;;;;;;;;;;;;;;;;;4944876;28;4541;-76
2024/02/18 06:15:14;;;;;;;;;;;;;;;;;;4955841;28;5061;-75
2024/02/18 06:17:40;;;;;;;;;;;;;;;;;;4962453;28;3615;-75
2024/02/18 06:20:06;;;;;;;;;;;;;;;;;;4945813;28;5081;-75
2024/02/18 06:22:31;;;;;;;;;;;;;;;;;;4947277;28;5143;-75
2024/02/18 06:24:56;;;;;;;;;;;;;;;;;;4930358;29;5256;-75
2024/02/18 06:27:22;;;;;;;;;;;;;;;;;;4963643;28;5193;-75
2024/02/18 06:29:47;;;;;;;;;;;;;;;;;;4951536;28;3440;-75
2024/02/18 06:32:12;;;;;;;;;;;;;;;;;;4949556;28;5113;-75
2024/02/18 06:34:38;;;;;;;;;;;;;;;;;;4962071;28;5249;-74
2024/02/18 06:37:03;;;;;;;;;;;;;;;;;;4966670;28;5252;-75
2024/02/18 06:39:28;;;;;;;;;;;;;;;;;;4964439;28;5241;-75
2024/02/18 06:41:54;;;;;;;;;;;;;;;;;;4972105;28;3193;-76
2024/02/18 06:44:21;;;;;;;;;;;;;;;;;;4970034;28;4864;-75
2024/02/18 06:46:46;;;;;;;;;;;;;;;;;;4970520;28;4559;-75
2024/02/18 06:49:11;;;;;;;;;;;;;;;;;;4945561;28;5123;-75
2024/02/18 06:51:37;;;;;;;;;;;;;;;;;;4965424;28;5136;-76
2024/02/18 06:54:02;;;;;;;;;;;;;;;;;;4967945;28;3386;-75
2024/02/18 06:56:27;;;;;;;;;;;;;;;;;;4967569;28;4460;-76
2024/02/18 06:58:53;;;;;;;;;;;;;;;;;;4958267;28;4522;-75
2024/02/18 07:01:21;;;;;;;;;;;;;;;;;;4964058;28;4820;-75
2024/02/18 07:03:46;;;;;;;;;;;;;;;;;;4969073;28;5088;-75
2024/02/18 07:06:12;;;;;;;;;;;;;;;;;;4940490;28;5164;-73
2024/02/18 07:08:37;;;;;;;;;;;;;;;;;;4947274;28;3365;-76
2024/02/18 07:11:02;;;;;;;;;;;;;;;;;;4963803;28;4574;-75
2024/02/18 07:13:28;;;;;;;;;;;;;;;;;;4948575;28;4523;-75
2024/02/18 07:15:54;;;;;;;;;;;;;;;;;;4954360;28;4506;-75
2024/02/18 07:18:19;;;;;;;;;;;;;;;;;;4964353;28;4526;-76
2024/02/18 07:20:45;;;;;;;;;;;;;;;;;;4968132;28;3414;-76
2024/02/18 07:23:11;;;;;;;;;;;;;;;;;;4970260;28;5073;-75
2024/02/18 07:25:37;;;;;;;;;;;;;;;;;;4967355;28;4572;-75
2024/02/18 07:28:02;;;;;;;;;;;;;;;;;;4963705;28;4943;-75
2024/02/18 07:30:27;;;;;;;;;;;;;;;;;;4951607;28;5044;-75
2024/02/18 07:32:53;;;;;;;;;;;;;;;;;;4967012;28;3516;-75
2024/02/18 07:35:18;;;;;;;;;;;;;;;;;;4949374;28;5115;-75
2024/02/18 07:37:43;;;;;;;;;;;;;;;;;;4965835;28;5106;-75
2024/02/18 07:40:09;;;;;;;;;;;;;;;;;;4947312;28;4757;-76
2024/02/18 07:42:34;;;;;;;;;;;;;;;;;;4963958;28;5197;-75
2024/02/18 07:45:00;;;;;;;;;;;;;;;;;;4963193;28;3338;-75
2024/02/18 07:47:25;;;;;;;;;;;;;;;;;;4964906;28;5053;-75
2024/02/18 07:49:50;;;;;;;;;;;;;;;;;;4956549;28;5143;-68
2024/02/18 07:52:16;;;;;;;;;;;;;;;;;;4957507;28;5151;-69
2024/02/18 07:54:45;;;;;;;;;;;;;;;;;;4963843;28;5238;-71
2024/02/18 07:57:10;;;;;;;;;;;;;;;;;;4962744;28;3491;-69
2024/02/18 07:59:36;;;;;;;;;;;;;;;;;;4961672;28;4709;-70
2024/02/18 08:02:01;;;;;;;;;;;;;;;;;;4965976;28;5056;-70
2024/02/18 08:04:26;;;;;;;;;;;;;;;;;;4967751;28;4774;-67
2024/02/18 08:06:51;;;;;;;;;;;;;;;;;;4964312;28;5180;-67
2024/02/18 08:09:17;;;;;;;;;;;;;;;;;;4967705;28;4736;-68
2024/02/18 08:11:44;;;;;;;;;;;;;;;;;;4963126;28;3322;-69
2024/02/18 08:14:10;;;;;;;;;;;;;;;;;;4962079;28;5531;-73
2024/02/18 08:16:35;;;;;;;;;;;;;;;;;;4962668;28;5106;-70
2024/02/18 08:19:01;;;;;;;;;;;;;;;;;;4961814;28;4699;-72
2024/02/18 08:21:26;;;;;;;;;;;;;;;;;;4956071;28;4599;-73
2024/02/18 08:23:51;;;;;;;;;;;;;;;;;;4971502;28;1348;-72
2024/02/18 08:26:23;;;;;;;;;;;;;;;;;;4969313;28;4933;-73
2024/02/18 08:28:51;;;;;;;;;;;;;;;;;;4962445;28;5109;-72
2024/02/18 08:31:17;;;;;;;;;;;;;;;;;;4961208;28;4647;-68
2024/02/18 08:33:42;;;;;;;;;;;;;;;;;;4962098;28;5370;-71
2024/02/18 08:36:07;;;;;;;;;;;;;;;;;;4968576;28;1253;-73
2024/02/18 08:38:33;;;;;;;;;;;;;;;;;;4962018;28;4487;-72
2024/02/18 08:40:58;;;;;;;;;;;;;;;;;;4946534;28;5055;-72
2024/02/18 08:43:23;;;;;;;;;;;;;;;;;;4957855;28;5282;-72
2024/02/18 08:45:49;;;;;;;;;;;;;;;;;;4966808;28;5040;-73
2024/02/18 08:48:14;;;;;;;;;;;;;;;;;;4962556;28;4747;-74
2024/02/18 08:50:39;;;;;;;;;;;;;;;;;;4957861;28;3379;-73
2024/02/18 08:53:05;;;;;;;;;;;;;;;;;;4966925;28;4882;-73
2024/02/18 08:55:30;;;;;;;;;;;;;;;;;;4968830;28;5139;-72
2024/02/18 08:57:55;;;;;;;;;;;;;;;;;;4962880;28;4519;-74
2024/02/18 09:00:21;;;;;;;;;;;;;;;;;;4962789;28;5073;-72
2024/02/18 09:02:46;;;;;;;;;;;;;;;;;;4960634;28;3415;-71
2024/02/18 09:05:11;;;;;;;;;;;;;;;;;;4955418;28;4759;-72
2024/02/18 09:07:37;;;;;;;;;;;;;;;;;;4966505;28;5092;-73
2024/02/18 09:10:02;;;;;;;;;;;;;;;;;;4963472;28;4588;-73
2024/02/18 09:12:28;;;;;;;;;;;;;;;;;;4962501;28;5183;-72
2024/02/18 09:14:53;;;;;;;;;;;;;;;;;;4959980;28;3501;-73
2024/02/18 09:17:19;;;;;;;;;;;;;;;;;;4959670;28;4540;-75
2024/02/18 09:19:48;;;;;;;;;;;;;;;;;;4956349;28;4714;-74
2024/02/18 09:22:13;;;;;;;;;;;;;;;;;;4946128;28;4962;-74
2024/02/18 09:24:41;;;;;;;;;;;;;;;;;;4966462;28;4993;-70
2024/02/18 09:27:07;;;;;;;;;;;;;;;;;;4956513;28;3452;-74
2024/02/18 09:29:32;;;;;;;;;;;;;;;;;;4962060;28;4970;-72
2024/02/18 09:31:58;;;;;;;;;;;;;;;;;;4953625;28;5150;-74
2024/02/18 09:34:23;;;;;;;;;;;;;;;;;;4947349;28;5076;-72
2024/02/18 09:36:48;;;;;;;;;;;;;;;;;;4965646;28;4513;-73
2024/02/18 09:39:14;;;;;;;;;;;;;;;;;;4962014;28;4506;-71
2024/02/18 09:41:39;;;;;;;;;;;;;;;;;;4966562;28;3544;-73
2024/02/18 09:44:07;;;;;;;;;;;;;;;;;;4948049;28;5048;-73
2024/02/18 09:46:33;;;;;;;;;;;;;;;;;;4961615;28;5088;-70
2024/02/18 09:48:58;;;;;;;;;;;;;;;;;;4958842;28;5155;-72
2024/02/18 09:51:24;;;;;;;;;;;;;;;;;;4957904;28;5140;-69
2024/02/18 09:53:49;;;;;;;;;;;;;;;;;;4945732;28;3467;-73
2024/02/18 09:56:14;;;;;;;;;;;;;;;;;;4960389;28;4511;-71
2024/02/18 09:58:40;;;;;;;;;;;;;;;;;;4962478;28;5133;-70
2024/02/18 10:01:05;;;;;;;;;;;;;;;;;;4947643;28;5274;-72
2024/02/18 10:03:30;;;;;;;;;;;;;;;;;;4940439;28;5279;-71
2024/02/18 10:05:56;;;;;;;;;;;;;;;;;;4926647;28;3481;-71
2024/02/18 10:08:21;;;;;;;;;;;;;;;;;;4961362;28;5027;-64
2024/02/18 10:10:46;;;;;;;;;;;;;;;;;;4953997;28;5039;-68
2024/02/18 10:13:12;;;;;;;;;;;;;;;;;;4954920;28;5058;-64
2024/02/18 10:15:37;;;;;;;;;;;;;;;;;;4967461;28;4709;-64
2024/02/18 10:18:03;;;;;;;;;;;;;;;;;;4965239;28;3544;-62
2024/02/18 10:20:28;;;;;;;;;;;;;;;;;;4964366;28;4953;-63
2024/02/18 10:22:54;;;;;;;;;;;;;;;;;;4960339;28;5141;-63
2024/02/18 10:25:19;;;;;;;;;;;;;;;;;;4946856;28;4799;-66
2024/02/18 10:27:44;;;;;;;;;;;;;;;;;;4959199;28;5089;-65
2024/02/18 10:30:11;;;;;;;;;;;;;;;;;;4956599;28;3534;-67
2024/02/18 10:32:36;;;;;;;;;;;;;;;;;;4954139;28;4581;-65
2024/02/18 10:35:04;;;;;;;;;;;;;;;;;;4959151;28;4584;-63
2024/02/18 10:37:33;;;;;;;;;;;;;;;;;;4963310;28;5043;-66
2024/02/18 10:40:12;;;;;;;;;;;;;;;;;;4961478;28;4974;-66
2024/02/18 10:42:37;;;;;;;;;;;;;;;;;;4954940;28;4555;-62
2024/02/18 10:45:03;;;;;;;;;;;;;;;;;;4964966;28;3528;-65
2024/02/18 10:47:29;;;;;;;;;;;;;;;;;;4962370;28;5003;-67
2024/02/18 10:50:00;;;;;;;;;;;;;;;;;;4955960;28;4502;-64
2024/02/18 10:52:41;;;;;;;;;;;;;;;;;;4963369;28;4548;-71
2024/02/18 10:55:11;;;;;;;;;;;;;;;;;;4967001;28;4494;-71
2024/02/18 10:57:42;;;;;;;;;;;;;;;;;;4943289;28;4597;-71
2024/02/18 11:00:11;;;;;;;;;;;;;;;;;;4951858;28;1154;-70
2024/02/18 11:02:55;;;;;;;;;;;;;;;;;;4943718;28;5075;-65
2024/02/18 11:05:20;;;;;;;;;;;;;;;;;;4950285;28;5121;-64
2024/02/18 11:07:46;;;;;;;;;;;;;;;;;;4936147;28;5215;-67
2024/02/18 11:10:11;;;;;;;;;;;;;;;;;;4946085;28;5006;-64
2024/02/18 11:12:37;;;;;;;;;;;;;;;;;;4945296;28;4944;-64
2024/02/18 11:15:04;;;;;;;;;;;;;;;;;;4944017;28;1375;-67
2024/02/18 11:17:29;;;;;;;;;;;;;;;;;;4955386;28;4614;-65
2024/02/18 11:19:55;;;;;;;;;;;;;;;;;;4945598;28;5300;-69
2024/02/18 11:22:21;;;;;;;;;;;;;;;;;;4959881;28;4981;-64
2024/02/18 11:24:48;;;;;;;;;;;;;;;;;;4965685;28;5324;-64
2024/02/18 11:27:13;;;;;;;;;;;;;;;;;;4964047;28;5613;-64
2024/02/18 11:29:45;;;;;;;;;;;;;;;;;;4951578;28;3615;-65
2024/02/18 11:32:11;;;;;;;;;;;;;;;;;;4963118;28;5201;-63
2024/02/18 11:34:36;;;;;;;;;;;;;;;;;;4969471;28;5175;-65
2024/02/18 11:37:05;;;;;;;;;;;;;;;;;;4961662;28;4752;-63
2024/02/18 11:39:30;;;;;;;;;;;;;;;;;;4949700;28;5074;-69
2024/02/18 11:41:56;;;;;;;;;;;;;;;;;;4966820;28;3631;-71
2024/02/18 11:44:22;;;;;;;;;;;;;;;;;;4961693;28;5058;-69
2024/02/18 11:46:50;;;;;;;;;;;;;;;;;;4964162;28;5113;-68
2024/02/18 11:49:15;;;;;;;;;;;;;;;;;;4963143;28;5115;-70
2024/02/18 11:51:40;;;;;;;;;;;;;;;;;;4963143;28;5086;-68
2024/02/18 11:54:06;;;;;;;;;;;;;;;;;;4968966;28;3460;-71
2024/02/18 11:56:31;;;;;;;;;;;;;;;;;;4959020;28;5027;-63
2024/02/18 11:58:57;;;;;;;;;;;;;;;;;;4960169;28;4573;-63
2024/02/18 12:01:25;;;;;;;;;;;;;;;;;;4959164;28;5027;-65
2024/02/18 12:03:50;;;;;;;;;;;;;;;;;;4944769;28;5182;-63
2024/02/18 12:06:16;;;;;;;;;;;;;;;;;;4961714;28;5192;-65
2024/02/18 12:08:41;;;;;;;;;;;;;;;;;;4968317;28;3514;-66
2024/02/18 12:11:06;;;;;;;;;;;;;;;;;;4963168;28;5152;-63
2024/02/18 12:13:35;;;;;;;;;;;;;;;;;;4961714;28;4989;-62
2024/02/18 12:16:01;;;;;;;;;;;;;;;;;;4962973;28;5108;-66
2024/02/18 12:18:27;;;;;;;;;;;;;;;;;;4964597;28;4560;-64
2024/02/18 12:20:53;;;;;;;;;;;;;;;;;;4964783;28;3472;-64
2024/02/18 12:23:19;;;;;;;;;;;;;;;;;;4965551;28;5199;-65
2024/02/18 12:25:44;;;;;;;;;;;;;;;;;;4950493;28;5179;-64
2024/02/18 12:28:10;;;;;;;;;;;;;;;;;;4957778;28;5062;-64
2024/02/18 12:30:38;;;;;;;;;;;;;;;;;;4952644;28;5013;-65
2024/02/18 12:33:04;;;;;;;;;;;;;;;;;;4952413;28;1314;-64
2024/02/18 12:35:30;;;;;;;;;;;;;;;;;;4950412;28;4627;-64
2024/02/18 12:37:58;;;;;;;;;;;;;;;;;;4963827;28;4476;-65
2024/02/18 12:40:23;;;;;;;;;;;;;;;;;;4963117;28;5127;-67
2024/02/18 12:42:49;;;;;;;;;;;;;;;;;;4963183;28;5095;-66
2024/02/18 12:45:20;;;;;;;;;;;;;;;;;;4953980;28;4840;-68
2024/02/18 12:47:46;;;;;;;;;;;;;;;;;;4942127;28;3522;-72
2024/02/18 12:50:11;;;;;;;;;;;;;;;;;;4956862;28;5118;-73
2024/02/18 12:52:38;;;;;;;;;;;;;;;;;;4964401;28;5198;-72
2024/02/18 12:55:04;;;;;;;;;;;;;;;;;;4963755;28;5061;-72
2024/02/18 12:57:29;;;;;;;;;;;;;;;;;;4963661;28;5170;-72
2024/02/18 12:59:55;;;;;;;;;;;;;;;;;;4965517;28;1090;-73
2024/02/18 13:02:20;;;;;;;;;;;;;;;;;;4945112;28;5171;-75
2024/02/18 13:04:55;;;;;;;;;;;;;;;;;;4943794;28;5176;-72
2024/02/18 13:07:20;;;;;;;;;;;;;;;;;;4941245;29;5199;-71
2024/02/18 13:09:46;;;;;;;;;;;;;;;;;;4951234;28;4554;-73
2024/02/18 13:12:11;;;;;;;;;;;;;;;;;;4958195;28;5080;-60
2024/02/18 13:14:40;;;;;;;;;;;;;;;;;;4961808;28;3607;-59
2024/02/18 13:17:06;;;;;;;;;;;;;;;;;;4956127;28;4668;-71
2024/02/18 13:19:32;;;;;;;;;;;;;;;;;;4958067;28;5067;-66
2024/02/18 13:21:57;;;;;;;;;;;;;;;;;;4967623;28;4972;-68
2024/02/18 13:24:22;;;;;;;;;;;;;;;;;;4961946;28;4728;-65
2024/02/18 13:26:48;;;;;;;;;;;;;;;;;;4964194;28;3669;-63
2024/02/18 13:29:13;;;;;;;;;;;;;;;;;;4967192;28;4948;-63
2024/02/18 13:31:41;;;;;;;;;;;;;;;;;;4962272;28;5101;-64
2024/02/18 13:34:07;;;;;;;;;;;;;;;;;;4958773;28;5238;-63
2024/02/18 13:36:39;;;;;;;;;;;;;;;;;;4961822;28;6082;-64
2024/02/18 13:39:05;;;;;;;;;;;;;;;;;;4961523;28;3419;-63
2024/02/18 13:41:30;;;;;;;;;;;;;;;;;;4959006;28;4642;-62
2024/02/18 13:43:56;;;;;;;;;;;;;;;;;;4956346;28;4509;-63
2024/02/18 13:46:21;;;;;;;;;;;;;;;;;;4961533;28;5067;-63
2024/02/18 13:48:46;;;;;;;;;;;;;;;;;;4962613;28;4548;-63
2024/02/18 13:51:12;;;;;;;;;;;;;;;;;;4966261;28;5144;-67
2024/02/18 13:53:37;;;;;;;;;;;;;;;;;;4948256;28;3311;-69
2024/02/18 13:56:03;;;;;;;;;;;;;;;;;;4955425;28;5085;-68
2024/02/18 13:58:29;;;;;;;;;;;;;;;;;;4960959;28;4612;-68
2024/02/18 14:00:54;;;;;;;;;;;;;;;;;;4948695;28;4723;-67
2024/02/18 14:03:20;;;;;;;;;;;;;;;;;;4962653;28;5099;-69
2024/02/18 14:05:45;;;;;;;;;;;;;;;;;;4949716;28;3050;-70
2024/02/18 14:08:10;;;;;;;;;;;;;;;;;;4967217;28;6098;-71
2024/02/18 14:10:36;;;;;;;;;;;;;;;;;;4965046;28;5118;-68
2024/02/18 14:13:01;;;;;;;;;;;;;;;;;;4967166;28;5136;-70
2024/02/18 14:15:27;;;;;;;;;;;;;;;;;;4964094;28;4738;-73
2024/02/18 14:17:53;;;;;;;;;;;;;;;;;;4968993;28;991;-67
2024/02/18 14:20:19;;;;;;;;;;;;;;;;;;4967492;28;5007;-68
2024/02/18 14:22:44;;;;;;;;;;;;;;;;;;4939285;28;5173;-68
2024/02/18 14:25:09;;;;;;;;;;;;;;;;;;4964061;28;5157;-68
2024/02/18 14:27:35;;;;;;;;;;;;;;;;;;4947202;28;4567;-67
2024/02/18 14:30:01;;;;;;;;;;;;;;;;;;4966956;28;1336;-70
2024/02/18 14:32:26;;;;;;;;;;;;;;;;;;4963816;28;5035;-70
2024/02/18 14:34:53;;;;;;;;;;;;;;;;;;4965522;28;4646;-69
2024/02/18 14:37:23;;;;;;;;;;;;;;;;;;4961610;28;5111;-71
2024/02/18 14:39:49;;;;;;;;;;;;;;;;;;4965456;28;5086;-68
2024/02/18 14:42:14;;;;;;;;;;;;;;;;;;4961842;28;5136;-69
2024/02/18 14:44:39;;;;;;;;;;;;;;;;;;4967002;28;2109;-69
2024/02/18 14:47:05;;;;;;;;;;;;;;;;;;4967631;28;4665;-71
2024/02/18 14:49:30;;;;;;;;;;;;;;;;;;4967711;28;4472;-68
2024/02/18 14:51:56;;;;;;;;;;;;;;;;;;4967721;28;4865;-68
2024/02/18 14:54:22;;;;;;;;;;;;;;;;;;4964889;28;5051;-72
2024/02/18 14:56:47;;;;;;;;;;;;;;;;;;4951042;28;1336;-70
2024/02/18 14:59:13;;;;;;;;;;;;;;;;;;4963557;28;4693;-68
2024/02/18 15:01:38;;;;;;;;;;;;;;;;;;4967849;28;4991;-67
2024/02/18 15:04:04;;;;;;;;;;;;;;;;;;4966318;28;5131;-70
2024/02/18 15:06:29;;;;;;;;;;;;;;;;;;4970731;28;5192;-71
2024/02/18 15:08:54;;;;;;;;;;;;;;;;;;4967773;28;3324;-69
2024/02/18 15:11:19;;;;;;;;;;;;;;;;;;4965264;28;5132;-70
2024/02/18 15:13:45;;;;;;;;;;;;;;;;;;4965904;28;5194;-69
2024/02/18 15:16:10;;;;;;;;;;;;;;;;;;4967006;28;4488;-70
2024/02/18 15:18:36;;;;;;;;;;;;;;;;;;4942613;29;4733;-69
2024/02/18 15:21:02;;;;;;;;;;;;;;;;;;4971697;28;1300;-69
2024/02/18 15:23:27;;;;;;;;;;;;;;;;;;4965619;28;5804;-66
2024/02/18 15:25:53;;;;;;;;;;;;;;;;;;4967514;28;5048;-68
2024/02/18 15:28:18;;;;;;;;;;;;;;;;;;4959410;28;5040;-70
2024/02/18 15:30:43;;;;;;;;;;;;;;;;;;4968126;28;4575;-67
2024/02/18 15:33:09;;;;;;;;;;;;;;;;;;4967370;28;1143;-66
2024/02/18 15:35:34;;;;;;;;;;;;;;;;;;4968672;28;4640;-67
2024/02/18 15:38:00;;;;;;;;;;;;;;;;;;4962514;28;4994;-68
2024/02/18 15:40:25;;;;;;;;;;;;;;;;;;4949731;28;5078;-74
2024/02/18 15:42:53;;;;;;;;;;;;;;;;;;4966956;28;5107;-69
2024/02/18 15:45:19;;;;;;;;;;;;;;;;;;4970377;28;5096;-71
2024/02/18 15:47:44;;;;;;;;;;;;;;;;;;4970896;28;2351;-68
2024/02/18 15:50:10;;;;;;;;;;;;;;;;;;4969810;28;5022;-69
2024/02/18 15:52:35;;;;;;;;;;;;;;;;;;4965038;28;4693;-69
2024/02/18 15:55:00;;;;;;;;;;;;;;;;;;4966718;28;4910;-68
2024/02/18 15:57:26;;;;;;;;;;;;;;;;;;4960702;28;5090;-68
2024/02/18 15:59:51;;;;;;;;;;;;;;;;;;4966535;28;1676;-67
2024/02/18 16:02:16;;;;;;;;;;;;;;;;;;4968387;28;5038;-70
2024/02/18 16:04:44;;;;;;;;;;;;;;;;;;4970394;28;4690;-68
2024/02/18 16:07:09;;;;;;;;;;;;;;;;;;4964582;28;5279;-67
2024/02/18 16:09:34;;;;;;;;;;;;;;;;;;4952228;28;5171;-68
2024/02/18 16:12:00;;;;;;;;;;;;;;;;;;4969430;28;1260;-69
2024/02/18 16:14:25;;;;;;;;;;;;;;;;;;4969785;28;5750;-68
2024/02/18 16:16:55;;;;;;;;;;;;;;;;;;4968783;28;4661;-73
2024/02/18 16:19:20;;;;;;;;;;;;;;;;;;4967893;28;4549;-71
2024/02/18 16:21:46;;;;;;;;;;;;;;;;;;4953771;28;4915;-69
2024/02/18 16:24:11;;;;;;;;;;;;;;;;;;4967690;28;5189;-67
2024/02/18 16:26:36;;;;;;;;;;;;;;;;;;4973762;28;1906;-69
2024/02/18 16:29:02;;;;;;;;;;;;;;;;;;4967780;28;4503;-69
2024/02/18 16:31:27;;;;;;;;;;;;;;;;;;4965247;28;4559;-73
2024/02/18 16:33:52;;;;;;;;;;;;;;;;;;4968315;28;4703;-68
2024/02/18 16:36:18;;;;;;;;;;;;;;;;;;4964100;28;5203;-68
2024/02/18 16:38:43;;;;;;;;;;;;;;;;;;4963898;28;3245;-68
2024/02/18 16:41:08;;;;;;;;;;;;;;;;;;4968289;28;5138;-67
2024/02/18 16:43:35;;;;;;;;;;;;;;;;;;4973503;28;4529;-69
2024/02/18 16:46:03;;;;;;;;;;;;;;;;;;4956046;28;4924;-73
2024/02/18 16:48:32;;;;;;;;;;;;;;;;;;4952736;28;4591;-67
2024/02/18 16:50:57;;;;;;;;;;;;;;;;;;4968611;28;2189;-68
2024/02/18 16:53:22;;;;;;;;;;;;;;;;;;4960360;28;5028;-67